sensor_id;sensor_type;location;lat;lon;timestamp;P1;durP1;ratioP1;P2;durP2;ratioP2
70126;SDS011;57491;42.694;23.314;2023-02-28T00:02:06;17.88;;;10.90;;
70126;SDS011;57491;42.694;23.314;2023-02-28T00:04:33;19.52;;;11.75;;
70126;SDS011;57491;42.694;23.314;2023-02-28T00:07:00;18.65;;;10.50;;
70126;SDS011;57491;42.694;23.314;2023-02-28T00:09:27;18.38;;;11.98;;
70126;SDS011;57491;42.694;23.314;2023-02-28T00:11:54;19.52;;;10.40;;
70126;SDS011;57491;42.694;23.314;2023-02-28T00:14:21;18.83;;;9.70;;
70126;SDS011;57491;42.694;23.314;2023-02-28T00:16:48;19.50;;;11.10;;
70126;SDS011;57491;42.694;23.314;2023-02-28T00:19:16;18.30;;;9.75;;
70126;SDS011;57491;42.694;23.314;2023-02-28T00:21:43;17.08;;;9.88;;
70126;SDS011;57491;42.694;23.314;2023-02-28T00:24:10;16.65;;;9.18;;
70126;SDS011;57491;42.694;23.314;2023-02-28T00:26:37;19.08;;;11.35;;
70126;SDS011;57491;42.694;23.314;2023-02-28T00:29:04;19.42;;;10.38;;
70126;SDS011;57491;42.694;23.314;2023-02-28T00:31:31;18.02;;;9.82;;
70126;SDS011;57491;42.694;23.314;2023-02-28T00:33:58;16.45;;;8.52;;
70126;SDS011;57491;42.694;23.314;2023-02-28T00:36:27;17.20;;;10.05;;
70126;SDS011;57491;42.694;23.314;2023-02-28T00:38:54;20.38;;;9.65;;
70126;SDS011;57491;42.694;23.314;2023-02-28T00:41:21;15.95;;;9.65;;
70126;SDS011;57491;42.694;23.314;2023-02-28T00:43:48;18.27;;;9.07;;
70126;SDS011;57491;42.694;23.314;2023-02-28T00:46:15;16.27;;;9.18;;
70126;SDS011;57491;42.694;23.314;2023-02-28T00:48:42;16.83;;;11.00;;
70126;SDS011;57491;42.694;23.314;2023-02-28T00:51:09;24.90;;;12.90;;
70126;SDS011;57491;42.694;23.314;2023-02-28T00:53:38;23.50;;;13.15;;
70126;SDS011;57491;42.694;23.314;2023-02-28T00:56:05;25.92;;;14.38;;
70126;SDS011;57491;42.694;23.314;2023-02-28T00:58:32;23.83;;;13.55;;
70126;SDS011;57491;42.694;23.314;2023-02-28T01:00:59;26.60;;;15.00;;
70126;SDS011;57491;42.694;23.314;2023-02-28T01:03:26;24.90;;;15.43;;
70126;SDS011;57491;42.694;23.314;2023-02-28T01:05:53;24.45;;;13.63;;
70126;SDS011;57491;42.694;23.314;2023-02-28T01:08:21;24.10;;;14.43;;
70126;SDS011;57491;42.694;23.314;2023-02-28T01:10:49;25.50;;;14.25;;
70126;SDS011;57491;42.694;23.314;2023-02-28T01:13:16;25.85;;;14.45;;
70126;SDS011;57491;42.694;23.314;2023-02-28T01:15:45;25.92;;;13.60;;
70126;SDS011;57491;42.694;23.314;2023-02-28T01:18:17;24.58;;;14.00;;
70126;SDS011;57491;42.694;23.314;2023-02-28T01:20:44;24.33;;;13.57;;
70126;SDS011;57491;42.694;23.314;2023-02-28T01:23:11;25.67;;;15.30;;
70126;SDS011;57491;42.694;23.314;2023-02-28T01:25:39;22.60;;;13.10;;
70126;SDS011;57491;42.694;23.314;2023-02-28T01:28:07;24.73;;;14.25;;
70126;SDS011;57491;42.694;23.314;2023-02-28T01:30:34;24.55;;;14.07;;
70126;SDS011;57491;42.694;23.314;2023-02-28T01:33:02;21.92;;;12.52;;
70126;SDS011;57491;42.694;23.314;2023-02-28T01:35:31;21.63;;;12.52;;
70126;SDS011;57491;42.694;23.314;2023-02-28T01:37:59;26.35;;;13.43;;
70126;SDS011;57491;42.694;23.314;2023-02-28T01:40:26;28.17;;;14.47;;
70126;SDS011;57491;42.694;23.314;2023-02-28T01:42:53;29.43;;;15.90;;
70126;SDS011;57491;42.694;23.314;2023-02-28T01:45:23;29.60;;;16.23;;
70126;SDS011;57491;42.694;23.314;2023-02-28T01:47:54;29.75;;;16.20;;
70126;SDS011;57491;42.694;23.314;2023-02-28T01:50:25;30.35;;;16.20;;
70126;SDS011;57491;42.694;23.314;2023-02-28T01:52:56;30.88;;;16.45;;
70126;SDS011;57491;42.694;23.314;2023-02-28T01:55:27;33.35;;;16.00;;
70126;SDS011;57491;42.694;23.314;2023-02-28T01:57:56;29.73;;;15.30;;
70126;SDS011;57491;42.694;23.314;2023-02-28T02:00:27;28.10;;;16.05;;
70126;SDS011;57491;42.694;23.314;2023-02-28T02:02:57;29.73;;;14.40;;
70126;SDS011;57491;42.694;23.314;2023-02-28T02:05:26;32.90;;;15.80;;
70126;SDS011;57491;42.694;23.314;2023-02-28T02:07:57;30.17;;;15.00;;
70126;SDS011;57491;42.694;23.314;2023-02-28T02:10:29;27.63;;;15.13;;
70126;SDS011;57491;42.694;23.314;2023-02-28T02:13:08;29.27;;;15.02;;
70126;SDS011;57491;42.694;23.314;2023-02-28T02:15:42;31.60;;;15.68;;
70126;SDS011;57491;42.694;23.314;2023-02-28T02:18:17;34.67;;;16.83;;
70126;SDS011;57491;42.694;23.314;2023-02-28T02:24:03;34.28;;;16.48;;
70126;SDS011;57491;42.694;23.314;2023-02-28T02:36:09;34.97;;;16.98;;
70126;SDS011;57491;42.694;23.314;2023-02-28T02:38:45;32.10;;;16.30;;
70126;SDS011;57491;42.694;23.314;2023-02-28T02:41:17;31.55;;;15.35;;
70126;SDS011;57491;42.694;23.314;2023-02-28T02:43:51;39.30;;;16.85;;
70126;SDS011;57491;42.694;23.314;2023-02-28T02:46:23;31.20;;;15.88;;
70126;SDS011;57491;42.694;23.314;2023-02-28T02:48:54;33.13;;;15.68;;
70126;SDS011;57491;42.694;23.314;2023-02-28T02:51:25;35.25;;;16.55;;
70126;SDS011;57491;42.694;23.314;2023-02-28T02:53:54;37.50;;;16.90;;
70126;SDS011;57491;42.694;23.314;2023-02-28T02:56:27;36.70;;;17.90;;
70126;SDS011;57491;42.694;23.314;2023-02-28T02:58:59;36.05;;;17.05;;
70126;SDS011;57491;42.694;23.314;2023-02-28T03:01:29;40.33;;;18.60;;
70126;SDS011;57491;42.694;23.314;2023-02-28T03:03:59;53.60;;;18.45;;
70126;SDS011;57491;42.694;23.314;2023-02-28T03:06:30;42.33;;;17.52;;
70126;SDS011;57491;42.694;23.314;2023-02-28T03:08:57;42.63;;;18.88;;
70126;SDS011;57491;42.694;23.314;2023-02-28T03:11:26;44.40;;;19.50;;
70126;SDS011;57491;42.694;23.314;2023-02-28T03:14:04;34.10;;;16.42;;
70126;SDS011;57491;42.694;23.314;2023-02-28T03:16:45;31.52;;;15.10;;
70126;SDS011;57491;42.694;23.314;2023-02-28T03:19:34;33.40;;;17.30;;
70126;SDS011;57491;42.694;23.314;2023-02-28T03:22:19;33.22;;;16.52;;
70126;SDS011;57491;42.694;23.314;2023-02-28T03:25:05;32.72;;;16.15;;
70126;SDS011;57491;42.694;23.314;2023-02-28T03:27:36;32.63;;;16.08;;
70126;SDS011;57491;42.694;23.314;2023-02-28T03:30:09;29.60;;;15.18;;
70126;SDS011;57491;42.694;23.314;2023-02-28T03:32:42;30.10;;;15.13;;
70126;SDS011;57491;42.694;23.314;2023-02-28T03:35:18;37.22;;;16.80;;
70126;SDS011;57491;42.694;23.314;2023-02-28T03:37:52;34.10;;;16.48;;
70126;SDS011;57491;42.694;23.314;2023-02-28T03:40:24;34.67;;;15.93;;
70126;SDS011;57491;42.694;23.314;2023-02-28T03:42:55;35.55;;;17.38;;
70126;SDS011;57491;42.694;23.314;2023-02-28T03:45:27;38.50;;;16.73;;
70126;SDS011;57491;42.694;23.314;2023-02-28T03:47:57;31.55;;;16.83;;
70126;SDS011;57491;42.694;23.314;2023-02-28T03:50:29;33.58;;;15.90;;
70126;SDS011;57491;42.694;23.314;2023-02-28T03:53:04;30.05;;;14.38;;
70126;SDS011;57491;42.694;23.314;2023-02-28T03:55:37;33.03;;;16.15;;
70126;SDS011;57491;42.694;23.314;2023-02-28T03:58:10;34.05;;;16.15;;
70126;SDS011;57491;42.694;23.314;2023-02-28T04:00:43;27.77;;;15.55;;
70126;SDS011;57491;42.694;23.314;2023-02-28T04:03:14;36.47;;;17.15;;
70126;SDS011;57491;42.694;23.314;2023-02-28T04:05:48;32.60;;;16.20;;
70126;SDS011;57491;42.694;23.314;2023-02-28T04:08:19;29.77;;;15.43;;
70126;SDS011;57491;42.694;23.314;2023-02-28T04:10:49;30.23;;;16.23;;
70126;SDS011;57491;42.694;23.314;2023-02-28T04:13:21;31.08;;;16.80;;
70126;SDS011;57491;42.694;23.314;2023-02-28T04:15:48;28.60;;;13.88;;
70126;SDS011;57491;42.694;23.314;2023-02-28T04:18:15;31.57;;;15.47;;
70126;SDS011;57491;42.694;23.314;2023-02-28T04:20:42;32.08;;;16.02;;
70126;SDS011;57491;42.694;23.314;2023-02-28T04:23:09;29.40;;;13.77;;
70126;SDS011;57491;42.694;23.314;2023-02-28T04:25:37;31.15;;;14.35;;
70126;SDS011;57491;42.694;23.314;2023-02-28T04:28:05;29.92;;;14.30;;
70126;SDS011;57491;42.694;23.314;2023-02-28T04:30:33;30.00;;;14.97;;
70126;SDS011;57491;42.694;23.314;2023-02-28T04:33:00;32.67;;;16.60;;
70126;SDS011;57491;42.694;23.314;2023-02-28T04:35:27;34.63;;;16.95;;
70126;SDS011;57491;42.694;23.314;2023-02-28T04:37:54;35.20;;;16.50;;
70126;SDS011;57491;42.694;23.314;2023-02-28T04:40:21;34.17;;;15.77;;
70126;SDS011;57491;42.694;23.314;2023-02-28T04:42:49;35.80;;;19.00;;
70126;SDS011;57491;42.694;23.314;2023-02-28T04:45:16;33.80;;;16.65;;
70126;SDS011;57491;42.694;23.314;2023-02-28T04:47:43;33.92;;;16.55;;
70126;SDS011;57491;42.694;23.314;2023-02-28T04:50:10;33.85;;;16.48;;
70126;SDS011;57491;42.694;23.314;2023-02-28T04:52:38;36.80;;;17.03;;
70126;SDS011;57491;42.694;23.314;2023-02-28T04:55:05;46.38;;;22.15;;
70126;SDS011;57491;42.694;23.314;2023-02-28T04:57:32;51.22;;;26.77;;
70126;SDS011;57491;42.694;23.314;2023-02-28T05:00:01;59.50;;;30.83;;
70126;SDS011;57491;42.694;23.314;2023-02-28T05:02:33;80.75;;;40.67;;
70126;SDS011;57491;42.694;23.314;2023-02-28T05:05:00;83.55;;;41.83;;
70126;SDS011;57491;42.694;23.314;2023-02-28T05:07:27;70.30;;;35.13;;
70126;SDS011;57491;42.694;23.314;2023-02-28T05:09:55;57.63;;;27.20;;
70126;SDS011;57491;42.694;23.314;2023-02-28T05:12:21;56.03;;;25.17;;
70126;SDS011;57491;42.694;23.314;2023-02-28T05:14:48;55.58;;;23.90;;
70126;SDS011;57491;42.694;23.314;2023-02-28T05:17:17;56.15;;;25.52;;
70126;SDS011;57491;42.694;23.314;2023-02-28T05:19:44;56.72;;;24.65;;
70126;SDS011;57491;42.694;23.314;2023-02-28T05:22:14;48.60;;;23.20;;
70126;SDS011;57491;42.694;23.314;2023-02-28T05:24:42;53.53;;;24.42;;
70126;SDS011;57491;42.694;23.314;2023-02-28T05:27:09;63.90;;;27.30;;
70126;SDS011;57491;42.694;23.314;2023-02-28T05:29:37;53.87;;;25.87;;
70126;SDS011;57491;42.694;23.314;2023-02-28T05:32:08;54.92;;;24.00;;
70126;SDS011;57491;42.694;23.314;2023-02-28T05:34:37;49.67;;;21.52;;
70126;SDS011;57491;42.694;23.314;2023-02-28T05:37:05;44.35;;;20.45;;
70126;SDS011;57491;42.694;23.314;2023-02-28T05:39:32;33.55;;;16.20;;
70126;SDS011;57491;42.694;23.314;2023-02-28T05:41:59;47.40;;;20.23;;
70126;SDS011;57491;42.694;23.314;2023-02-28T05:44:27;43.85;;;20.77;;
70126;SDS011;57491;42.694;23.314;2023-02-28T05:46:54;53.43;;;21.50;;
70126;SDS011;57491;42.694;23.314;2023-02-28T05:49:21;48.65;;;22.45;;
70126;SDS011;57491;42.694;23.314;2023-02-28T05:51:49;55.47;;;22.27;;
70126;SDS011;57491;42.694;23.314;2023-02-28T05:54:17;56.60;;;23.23;;
70126;SDS011;57491;42.694;23.314;2023-02-28T05:56:44;52.90;;;21.40;;
70126;SDS011;57491;42.694;23.314;2023-02-28T05:59:11;49.25;;;21.27;;
70126;SDS011;57491;42.694;23.314;2023-02-28T06:01:39;52.60;;;22.15;;
70126;SDS011;57491;42.694;23.314;2023-02-28T06:04:08;50.53;;;22.45;;
70126;SDS011;57491;42.694;23.314;2023-02-28T06:06:37;40.13;;;18.70;;
70126;SDS011;57491;42.694;23.314;2023-02-28T06:09:06;39.25;;;18.30;;
70126;SDS011;57491;42.694;23.314;2023-02-28T06:11:33;38.33;;;17.92;;
70126;SDS011;57491;42.694;23.314;2023-02-28T06:14:00;34.88;;;17.35;;
70126;SDS011;57491;42.694;23.314;2023-02-28T06:16:28;33.20;;;17.15;;
70126;SDS011;57491;42.694;23.314;2023-02-28T06:18:57;35.58;;;18.35;;
70126;SDS011;57491;42.694;23.314;2023-02-28T06:21:25;53.85;;;20.83;;
70126;SDS011;57491;42.694;23.314;2023-02-28T06:23:53;50.95;;;21.55;;
70126;SDS011;57491;42.694;23.314;2023-02-28T06:26:22;48.95;;;21.85;;
70126;SDS011;57491;42.694;23.314;2023-02-28T06:28:49;43.10;;;19.88;;
70126;SDS011;57491;42.694;23.314;2023-02-28T06:33:45;53.90;;;21.63;;
70126;SDS011;57491;42.694;23.314;2023-02-28T06:36:13;40.63;;;19.75;;
70126;SDS011;57491;42.694;23.314;2023-02-28T06:38:42;43.47;;;21.50;;
70126;SDS011;57491;42.694;23.314;2023-02-28T06:41:09;53.78;;;22.58;;
70126;SDS011;57491;42.694;23.314;2023-02-28T06:43:39;46.45;;;23.15;;
70126;SDS011;57491;42.694;23.314;2023-02-28T06:46:08;40.90;;;19.00;;
70126;SDS011;57491;42.694;23.314;2023-02-28T06:48:38;39.83;;;18.88;;
70126;SDS011;57491;42.694;23.314;2023-02-28T06:51:06;54.80;;;23.20;;
70126;SDS011;57491;42.694;23.314;2023-02-28T06:53:34;47.42;;;22.90;;
70126;SDS011;57491;42.694;23.314;2023-02-28T06:56:03;56.03;;;23.25;;
70126;SDS011;57491;42.694;23.314;2023-02-28T06:58:32;58.42;;;25.88;;
70126;SDS011;57491;42.694;23.314;2023-02-28T07:01:01;53.47;;;23.55;;
70126;SDS011;57491;42.694;23.314;2023-02-28T07:03:29;61.75;;;26.58;;
70126;SDS011;57491;42.694;23.314;2023-02-28T07:05:56;61.83;;;26.55;;
70126;SDS011;57491;42.694;23.314;2023-02-28T07:08:23;61.05;;;26.38;;
70126;SDS011;57491;42.694;23.314;2023-02-28T07:10:51;68.60;;;27.85;;
70126;SDS011;57491;42.694;23.314;2023-02-28T07:13:19;56.90;;;23.92;;
70126;SDS011;57491;42.694;23.314;2023-02-28T07:15:52;54.38;;;24.25;;
70126;SDS011;57491;42.694;23.314;2023-02-28T07:18:22;44.25;;;20.67;;
70126;SDS011;57491;42.694;23.314;2023-02-28T07:20:49;42.75;;;20.23;;
70126;SDS011;57491;42.694;23.314;2023-02-28T07:23:17;36.40;;;18.23;;
70126;SDS011;57491;42.694;23.314;2023-02-28T07:25:44;39.83;;;20.23;;
70126;SDS011;57491;42.694;23.314;2023-02-28T07:30:40;45.80;;;21.20;;
70126;SDS011;57491;42.694;23.314;2023-02-28T07:33:07;44.28;;;23.80;;
70126;SDS011;57491;42.694;23.314;2023-02-28T07:35:36;43.15;;;22.83;;
70126;SDS011;57491;42.694;23.314;2023-02-28T07:38:03;38.90;;;20.73;;
70126;SDS011;57491;42.694;23.314;2023-02-28T07:40:32;40.50;;;21.33;;
70126;SDS011;57491;42.694;23.314;2023-02-28T07:43:00;44.95;;;21.33;;
70126;SDS011;57491;42.694;23.314;2023-02-28T07:45:27;45.92;;;23.13;;
70126;SDS011;57491;42.694;23.314;2023-02-28T07:47:55;45.55;;;22.23;;
70126;SDS011;57491;42.694;23.314;2023-02-28T07:50:22;43.50;;;21.80;;
70126;SDS011;57491;42.694;23.314;2023-02-28T07:52:51;51.58;;;23.13;;
70126;SDS011;57491;42.694;23.314;2023-02-28T07:55:18;42.33;;;20.33;;
70126;SDS011;57491;42.694;23.314;2023-02-28T07:57:45;41.28;;;20.67;;
70126;SDS011;57491;42.694;23.314;2023-02-28T08:00:12;44.65;;;23.90;;
70126;SDS011;57491;42.694;23.314;2023-02-28T08:02:40;41.72;;;20.63;;
70126;SDS011;57491;42.694;23.314;2023-02-28T08:05:07;35.83;;;18.33;;
70126;SDS011;57491;42.694;23.314;2023-02-28T08:07:34;38.15;;;18.67;;
70126;SDS011;57491;42.694;23.314;2023-02-28T08:10:03;36.63;;;19.88;;
70126;SDS011;57491;42.694;23.314;2023-02-28T08:12:31;34.50;;;19.50;;
70126;SDS011;57491;42.694;23.314;2023-02-28T08:14:58;38.00;;;20.70;;
70126;SDS011;57491;42.694;23.314;2023-02-28T08:17:25;40.40;;;20.45;;
70126;SDS011;57491;42.694;23.314;2023-02-28T08:19:53;45.27;;;22.83;;
70126;SDS011;57491;42.694;23.314;2023-02-28T08:22:20;33.70;;;19.33;;
70126;SDS011;57491;42.694;23.314;2023-02-28T08:24:47;34.93;;;19.37;;
70126;SDS011;57491;42.694;23.314;2023-02-28T08:27:16;35.22;;;18.83;;
70126;SDS011;57491;42.694;23.314;2023-02-28T08:29:43;38.85;;;21.42;;
70126;SDS011;57491;42.694;23.314;2023-02-28T08:32:10;38.30;;;20.20;;
70126;SDS011;57491;42.694;23.314;2023-02-28T08:34:38;38.58;;;20.65;;
70126;SDS011;57491;42.694;23.314;2023-02-28T08:37:05;39.42;;;21.48;;
70126;SDS011;57491;42.694;23.314;2023-02-28T08:39:33;36.17;;;21.13;;
70126;SDS011;57491;42.694;23.314;2023-02-28T08:42:01;37.97;;;22.85;;
70126;SDS011;57491;42.694;23.314;2023-02-28T08:44:29;37.23;;;22.03;;
70126;SDS011;57491;42.694;23.314;2023-02-28T08:46:56;33.25;;;20.33;;
70126;SDS011;57491;42.694;23.314;2023-02-28T08:49:23;37.83;;;21.57;;
70126;SDS011;57491;42.694;23.314;2023-02-28T08:51:50;39.13;;;21.52;;
70126;SDS011;57491;42.694;23.314;2023-02-28T08:54:17;39.90;;;22.07;;
70126;SDS011;57491;42.694;23.314;2023-02-28T08:56:45;38.78;;;22.90;;
70126;SDS011;57491;42.694;23.314;2023-02-28T08:59:12;36.40;;;21.42;;
70126;SDS011;57491;42.694;23.314;2023-02-28T09:01:41;48.47;;;23.70;;
70126;SDS011;57491;42.694;23.314;2023-02-28T09:04:09;44.80;;;22.48;;
70126;SDS011;57491;42.694;23.314;2023-02-28T09:09:04;44.25;;;24.45;;
70126;SDS011;57491;42.694;23.314;2023-02-28T09:11:33;44.40;;;23.10;;
70126;SDS011;57491;42.694;23.314;2023-02-28T09:21:24;52.20;;;27.15;;
70126;SDS011;57491;42.694;23.314;2023-02-28T09:23:51;46.07;;;23.63;;
70126;SDS011;57491;42.694;23.314;2023-02-28T09:26:19;53.37;;;24.90;;
70126;SDS011;57491;42.694;23.314;2023-02-28T09:28:48;54.95;;;26.58;;
70126;SDS011;57491;42.694;23.314;2023-02-28T09:31:16;55.37;;;28.70;;
70126;SDS011;57491;42.694;23.314;2023-02-28T09:33:47;58.65;;;27.73;;
70126;SDS011;57491;42.694;23.314;2023-02-28T09:36:16;52.55;;;27.33;;
70126;SDS011;57491;42.694;23.314;2023-02-28T09:38:43;66.43;;;30.20;;
70126;SDS011;57491;42.694;23.314;2023-02-28T09:41:13;53.40;;;26.48;;
70126;SDS011;57491;42.694;23.314;2023-02-28T09:43:43;56.47;;;26.40;;
70126;SDS011;57491;42.694;23.314;2023-02-28T09:46:19;64.15;;;28.73;;
70126;SDS011;57491;42.694;23.314;2023-02-28T09:48:53;52.38;;;25.17;;
70126;SDS011;57491;42.694;23.314;2023-02-28T09:54:18;45.92;;;24.90;;
70126;SDS011;57491;42.694;23.314;2023-02-28T09:56:49;57.28;;;27.13;;
70126;SDS011;57491;42.694;23.314;2023-02-28T09:59:28;50.15;;;26.00;;
70126;SDS011;57491;42.694;23.314;2023-02-28T10:02:07;50.30;;;25.45;;
70126;SDS011;57491;42.694;23.314;2023-02-28T10:04:49;47.00;;;26.30;;
70126;SDS011;57491;42.694;23.314;2023-02-28T10:07:35;43.05;;;22.33;;
70126;SDS011;57491;42.694;23.314;2023-02-28T10:10:15;39.17;;;20.27;;
70126;SDS011;57491;42.694;23.314;2023-02-28T10:12:48;23.92;;;10.77;;
70126;SDS011;57491;42.694;23.314;2023-02-28T10:15:19;25.25;;;12.07;;
70126;SDS011;57491;42.694;23.314;2023-02-28T10:17:51;29.90;;;12.50;;
70126;SDS011;57491;42.694;23.314;2023-02-28T10:20:23;26.25;;;12.88;;
70126;SDS011;57491;42.694;23.314;2023-02-28T10:22:58;19.88;;;9.48;;
70126;SDS011;57491;42.694;23.314;2023-02-28T10:25:33;25.52;;;13.07;;
70126;SDS011;57491;42.694;23.314;2023-02-28T10:28:07;34.20;;;12.77;;
70126;SDS011;57491;42.694;23.314;2023-02-28T10:33:50;24.02;;;11.43;;
70126;SDS011;57491;42.694;23.314;2023-02-28T10:36:20;30.75;;;12.75;;
70126;SDS011;57491;42.694;23.314;2023-02-28T10:38:56;24.95;;;11.02;;
70126;SDS011;57491;42.694;23.314;2023-02-28T10:41:27;23.33;;;10.75;;
70126;SDS011;57491;42.694;23.314;2023-02-28T10:46:53;20.35;;;9.77;;
70126;SDS011;57491;42.694;23.314;2023-02-28T10:49:25;23.85;;;10.30;;
70126;SDS011;57491;42.694;23.314;2023-02-28T10:52:01;23.67;;;9.60;;
70126;SDS011;57491;42.694;23.314;2023-02-28T10:54:31;21.92;;;10.32;;
70126;SDS011;57491;42.694;23.314;2023-02-28T10:57:18;19.55;;;9.55;;
70126;SDS011;57491;42.694;23.314;2023-02-28T10:59:50;21.85;;;10.75;;
70126;SDS011;57491;42.694;23.314;2023-02-28T11:02:34;25.65;;;10.20;;
70126;SDS011;57491;42.694;23.314;2023-02-28T11:07:59;22.80;;;9.52;;
70126;SDS011;57491;42.694;23.314;2023-02-28T11:10:38;24.95;;;10.05;;
70126;SDS011;57491;42.694;23.314;2023-02-28T11:13:06;21.52;;;10.15;;
70126;SDS011;57491;42.694;23.314;2023-02-28T11:15:33;18.98;;;9.90;;
70126;SDS011;57491;42.694;23.314;2023-02-28T11:20:50;27.77;;;11.30;;
70126;SDS011;57491;42.694;23.314;2023-02-28T11:23:18;19.38;;;9.57;;
70126;SDS011;57491;42.694;23.314;2023-02-28T11:25:49;20.02;;;10.50;;
70126;SDS011;57491;42.694;23.314;2023-02-28T11:28:24;15.18;;;9.05;;
70126;SDS011;57491;42.694;23.314;2023-02-28T11:31:02;18.60;;;10.23;;
70126;SDS011;57491;42.694;23.314;2023-02-28T11:33:32;19.10;;;11.20;;
70126;SDS011;57491;42.694;23.314;2023-02-28T11:36:09;23.05;;;13.20;;
70126;SDS011;57491;42.694;23.314;2023-02-28T11:38:39;18.10;;;10.52;;
70126;SDS011;57491;42.694;23.314;2023-02-28T11:43:56;18.80;;;9.67;;
70126;SDS011;57491;42.694;23.314;2023-02-28T11:46:34;24.77;;;10.90;;
70126;SDS011;57491;42.694;23.314;2023-02-28T11:49:13;18.65;;;10.15;;
70126;SDS011;57491;42.694;23.314;2023-02-28T11:51:54;17.08;;;10.32;;
70126;SDS011;57491;42.694;23.314;2023-02-28T11:54:31;19.42;;;10.50;;
70126;SDS011;57491;42.694;23.314;2023-02-28T11:57:18;23.13;;;11.73;;
70126;SDS011;57491;42.694;23.314;2023-02-28T12:00:03;18.92;;;10.20;;
70126;SDS011;57491;42.694;23.314;2023-02-28T12:02:44;15.88;;;9.32;;
70126;SDS011;57491;42.694;23.314;2023-02-28T12:05:23;20.52;;;10.25;;
70126;SDS011;57491;42.694;23.314;2023-02-28T12:08:03;25.55;;;9.85;;
70126;SDS011;57491;42.694;23.314;2023-02-28T12:10:44;26.95;;;10.38;;
70126;SDS011;57491;42.694;23.314;2023-02-28T12:13:26;19.88;;;10.45;;
70126;SDS011;57491;42.694;23.314;2023-02-28T12:21:53;21.35;;;11.50;;
70126;SDS011;57491;42.694;23.314;2023-02-28T12:24:44;19.83;;;9.45;;
70126;SDS011;57491;42.694;23.314;2023-02-28T12:27:22;21.13;;;9.65;;
70126;SDS011;57491;42.694;23.314;2023-02-28T12:29:55;18.73;;;9.05;;
70126;SDS011;57491;42.694;23.314;2023-02-28T12:32:26;21.75;;;9.75;;
70126;SDS011;57491;42.694;23.314;2023-02-28T12:34:58;17.60;;;8.70;;
70126;SDS011;57491;42.694;23.314;2023-02-28T12:37:31;18.60;;;9.38;;
70126;SDS011;57491;42.694;23.314;2023-02-28T12:40:06;21.27;;;10.65;;
70126;SDS011;57491;42.694;23.314;2023-02-28T12:42:39;22.77;;;11.50;;
70126;SDS011;57491;42.694;23.314;2023-02-28T12:45:12;18.42;;;10.02;;
70126;SDS011;57491;42.694;23.314;2023-02-28T12:47:44;19.80;;;9.07;;
70126;SDS011;57491;42.694;23.314;2023-02-28T12:50:15;23.85;;;11.55;;
70126;SDS011;57491;42.694;23.314;2023-02-28T12:52:46;20.60;;;10.48;;
70126;SDS011;57491;42.694;23.314;2023-02-28T12:55:21;26.20;;;10.43;;
70126;SDS011;57491;42.694;23.314;2023-02-28T12:57:55;22.08;;;9.43;;
70126;SDS011;57491;42.694;23.314;2023-02-28T13:00:32;18.73;;;11.43;;
70126;SDS011;57491;42.694;23.314;2023-02-28T13:03:19;20.77;;;9.82;;
70126;SDS011;57491;42.694;23.314;2023-02-28T13:06:05;18.95;;;8.85;;
70126;SDS011;57491;42.694;23.314;2023-02-28T13:08:59;22.83;;;9.52;;
70126;SDS011;57491;42.694;23.314;2023-02-28T13:11:29;21.90;;;9.63;;
70126;SDS011;57491;42.694;23.314;2023-02-28T13:13:58;25.33;;;10.48;;
70126;SDS011;57491;42.694;23.314;2023-02-28T13:16:29;25.38;;;9.63;;
70126;SDS011;57491;42.694;23.314;2023-02-28T13:19:17;20.30;;;10.32;;
70126;SDS011;57491;42.694;23.314;2023-02-28T13:21:46;18.00;;;8.77;;
70126;SDS011;57491;42.694;23.314;2023-02-28T13:27:12;23.75;;;10.43;;
70126;SDS011;57491;42.694;23.314;2023-02-28T13:29:57;18.65;;;10.18;;
70126;SDS011;57491;42.694;23.314;2023-02-28T13:32:30;23.65;;;9.88;;
70126;SDS011;57491;42.694;23.314;2023-02-28T13:44:14;18.65;;;9.63;;
70126;SDS011;57491;42.694;23.314;2023-02-28T13:49:50;21.13;;;9.10;;
70126;SDS011;57491;42.694;23.314;2023-02-28T13:52:19;23.92;;;10.40;;
70126;SDS011;57491;42.694;23.314;2023-02-28T13:54:52;24.60;;;10.27;;
70126;SDS011;57491;42.694;23.314;2023-02-28T13:57:49;25.17;;;9.68;;
70126;SDS011;57491;42.694;23.314;2023-02-28T14:00:28;18.33;;;8.85;;
70126;SDS011;57491;42.694;23.314;2023-02-28T14:03:22;23.60;;;9.63;;
70126;SDS011;57491;42.694;23.314;2023-02-28T14:08:50;17.60;;;10.15;;
70126;SDS011;57491;42.694;23.314;2023-02-28T14:11:29;22.00;;;9.05;;
70126;SDS011;57491;42.694;23.314;2023-02-28T14:13:58;18.35;;;8.60;;
70126;SDS011;57491;42.694;23.314;2023-02-28T14:16:26;17.65;;;8.40;;
70126;SDS011;57491;42.694;23.314;2023-02-28T14:19:02;19.65;;;8.93;;
70126;SDS011;57491;42.694;23.314;2023-02-28T14:21:38;22.15;;;8.93;;
70126;SDS011;57491;42.694;23.314;2023-02-28T14:24:20;28.67;;;11.65;;
70126;SDS011;57491;42.694;23.314;2023-02-28T14:27:02;21.98;;;10.65;;
70126;SDS011;57491;42.694;23.314;2023-02-28T14:30:01;15.50;;;7.72;;
70126;SDS011;57491;42.694;23.314;2023-02-28T14:32:41;22.00;;;8.93;;
70126;SDS011;57491;42.694;23.314;2023-02-28T14:35:18;15.98;;;8.10;;
70126;SDS011;57491;42.694;23.314;2023-02-28T14:37:56;19.13;;;9.45;;
70126;SDS011;57491;42.694;23.314;2023-02-28T14:40:27;18.95;;;9.52;;
70126;SDS011;57491;42.694;23.314;2023-02-28T14:42:57;20.38;;;9.55;;
70126;SDS011;57491;42.694;23.314;2023-02-28T14:45:26;27.55;;;10.07;;
70126;SDS011;57491;42.694;23.314;2023-02-28T14:47:55;22.33;;;8.88;;
70126;SDS011;57491;42.694;23.314;2023-02-28T14:50:26;23.33;;;9.00;;
70126;SDS011;57491;42.694;23.314;2023-02-28T14:52:57;18.80;;;9.18;;
70126;SDS011;57491;42.694;23.314;2023-02-28T14:55:26;18.25;;;9.18;;
70126;SDS011;57491;42.694;23.314;2023-02-28T14:57:57;23.80;;;9.38;;
70126;SDS011;57491;42.694;23.314;2023-02-28T15:00:25;25.73;;;9.48;;
70126;SDS011;57491;42.694;23.314;2023-02-28T15:02:54;15.75;;;8.13;;
70126;SDS011;57491;42.694;23.314;2023-02-28T15:05:24;16.92;;;8.23;;
70126;SDS011;57491;42.694;23.314;2023-02-28T15:08:10;21.75;;;8.98;;
70126;SDS011;57491;42.694;23.314;2023-02-28T15:10:39;23.80;;;10.13;;
70126;SDS011;57491;42.694;23.314;2023-02-28T15:13:10;27.00;;;11.25;;
70126;SDS011;57491;42.694;23.314;2023-02-28T15:15:41;18.92;;;8.73;;
70126;SDS011;57491;42.694;23.314;2023-02-28T15:18:14;23.25;;;8.93;;
70126;SDS011;57491;42.694;23.314;2023-02-28T15:20:48;20.25;;;8.95;;
70126;SDS011;57491;42.694;23.314;2023-02-28T15:23:18;21.58;;;8.30;;
70126;SDS011;57491;42.694;23.314;2023-02-28T15:25:47;20.83;;;9.15;;
70126;SDS011;57491;42.694;23.314;2023-02-28T15:28:17;25.38;;;9.02;;
70126;SDS011;57491;42.694;23.314;2023-02-28T15:30:56;20.20;;;8.45;;
70126;SDS011;57491;42.694;23.314;2023-02-28T15:33:26;18.48;;;8.88;;
70126;SDS011;57491;42.694;23.314;2023-02-28T15:36:10;24.60;;;10.23;;
70126;SDS011;57491;42.694;23.314;2023-02-28T15:38:41;21.10;;;9.57;;
70126;SDS011;57491;42.694;23.314;2023-02-28T15:41:20;18.40;;;9.27;;
70126;SDS011;57491;42.694;23.314;2023-02-28T15:43:48;19.85;;;8.77;;